SBGL/GIG METAR and TAF weather

Enter ICAO airport designator
Station Type Date Time Source
SBGL METAR 2021/01/17 19:00 UTC NOAA

SBGL 171900Z 08009KT 9999 FEW040 35/18 Q1006


Station Type Date Time Source
SBGL Decoded METAR 2021/01/17 19:00 UTC NOAA

Galeao, Brazil (SBGL) 22-49S 043-15W 42M
Jan 17, 2021 - 02:00 PM EST / 2021.01.17 1900 UTC
Wind: from the E (080 degrees) at 10 MPH (9 KT):0
Visibility: greater than 7 mile(s):0
Sky conditions: mostly clear
Temperature: 95 F (35 C)
Heat index: 97.0 F (36.1 C):1
Dew Point: 64 F (18 C)
Relative Humidity: 36%
Pressure (altimeter): 29.71 in. Hg (1006 hPa)
ob: SBGL 171900Z 08009KT 9999 FEW040 35/18 Q1006
cycle: 19

Station Type Date Time Source
SBGL TAF 2021/01/17 18:57 UTC NOAA

TAF SBGL 171500Z 1718/1824 13010KT 9999 FEW030TCU TN25/1807Z TX36/1816Z PROB30 1720/1722 TS FEW030CB
BECMG 1723/1801 09005KT CAVOK
BECMG 1808/1810 06005KT
BECMG 1811/1813 05005KT
BECMG 1814/1816 09010KT FEW025
BECMG 1817/1819 13010KT PROB30 1820/1823 09010KT TS SCT025 FEW030CB
RMK PHD

Example: see airport list